createdAt,value
2023-01-17T00:47:37.302Z,25.12
2023-01-17T00:50:27.725Z,25.08
2023-01-17T00:53:16.279Z,25.18
2023-01-17T00:56:05.282Z,25.28
2023-01-17T00:58:53.989Z,25.11
2023-01-17T01:01:43.277Z,25.19
2023-01-17T01:04:31.635Z,25.10
2023-01-17T01:07:20.566Z,24.94
2023-01-17T01:10:09.220Z,24.85
2023-01-17T01:12:57.735Z,24.82
2023-01-17T01:15:45.846Z,24.88
2023-01-17T01:18:34.901Z,24.80
2023-01-17T01:21:24.399Z,24.75
2023-01-17T01:24:13.562Z,24.71
2023-01-17T01:27:02.106Z,24.83
2023-01-17T01:29:50.964Z,24.78
2023-01-17T01:32:39.461Z,24.76
2023-01-17T01:35:10.417Z,24.72
2023-01-17T01:37:40.736Z,24.65
2023-01-17T01:40:13.831Z,24.71
2023-01-17T01:43:01.399Z,24.57
2023-01-17T01:45:33.578Z,24.40
2023-01-17T01:48:07.759Z,24.42
2023-01-17T01:50:38.830Z,24.35
2023-01-17T01:53:09.483Z,24.20
2023-01-17T01:55:42.182Z,24.18
2023-01-17T01:58:18.125Z,24.22
2023-01-17T02:00:48.969Z,24.19
2023-01-17T02:03:26.925Z,24.28
2023-01-17T02:06:02.534Z,24.20
2023-01-17T02:08:34.179Z,24.24
2023-01-17T02:11:05.503Z,24.19
2023-01-17T02:13:35.879Z,24.32
2023-01-17T02:16:21.733Z,24.23
2023-01-17T02:19:07.131Z,24.27
2023-01-17T02:21:57.924Z,24.09
2023-01-17T02:24:34.164Z,24.20
2023-01-17T02:27:10.831Z,24.16
2023-01-17T02:30:12.395Z,24.11
2023-01-17T02:33:06.758Z,24.14
2023-01-17T02:35:43.663Z,24.13
2023-01-17T02:38:22.599Z,24.17
2023-01-17T02:41:02.987Z,24.26
2023-01-17T02:43:35.499Z,24.09
2023-01-17T02:46:06.172Z,24.11
2023-01-17T02:48:39.117Z,24.14
2023-01-17T02:51:18.151Z,24.10
2023-01-17T02:54:19.624Z,24.07
2023-01-17T02:57:08.063Z,23.99
2023-01-17T03:00:15.338Z,23.93
2023-01-17T03:03:09.758Z,23.91
2023-01-17T03:05:58.914Z,23.97
2023-01-17T03:08:30.138Z,23.96
2023-01-17T03:11:01.522Z,23.90
2023-01-17T03:13:32.208Z,24.05
2023-01-17T03:16:04.829Z,24.07
2023-01-17T03:18:35.762Z,24.01
2023-01-17T03:21:06.595Z,23.86
2023-01-17T03:23:36.836Z,23.80
2023-01-17T03:26:07.906Z,23.63
2023-01-17T03:28:38.253Z,23.65
2023-01-17T03:31:09.093Z,23.61
2023-01-17T03:33:39.335Z,23.75
2023-01-17T03:36:10.332Z,23.89
2023-01-17T03:38:40.727Z,23.75
2023-01-17T03:41:11.455Z,23.71
2023-01-17T03:43:54.019Z,23.77
2023-01-17T03:46:27.397Z,23.57
2023-01-17T03:48:57.661Z,23.61
2023-01-17T03:51:29.366Z,23.65
2023-01-17T03:54:00.129Z,23.67
2023-01-17T03:56:30.996Z,23.53
2023-01-17T03:59:01.356Z,23.71
2023-01-17T04:01:32.217Z,23.85
2023-01-17T04:04:02.615Z,23.73
2023-01-17T04:06:33.316Z,23.61
2023-01-17T04:09:03.622Z,23.57
2023-01-17T04:11:34.516Z,23.73
2023-01-17T04:14:04.748Z,23.70
2023-01-17T04:16:35.499Z,23.82
2023-01-17T04:19:05.749Z,23.86
2023-01-17T04:21:36.432Z,23.82
2023-01-17T04:24:07.153Z,23.87
2023-01-17T04:26:38.174Z,23.81
2023-01-17T04:29:08.382Z,23.65
2023-01-17T04:31:39.238Z,23.49
2023-01-17T04:34:09.514Z,23.40
2023-01-17T04:36:40.316Z,23.61
2023-01-17T04:39:10.575Z,23.65
2023-01-17T04:41:41.487Z,23.64
2023-01-17T04:44:11.821Z,23.28
2023-01-17T04:46:42.793Z,23.47
2023-01-17T04:49:13.083Z,23.61
2023-01-17T04:51:44.198Z,23.63
2023-01-17T04:54:14.580Z,23.65
2023-01-17T04:56:46.102Z,23.51
2023-01-17T04:59:16.346Z,23.55
2023-01-17T05:01:49.612Z,23.46
2023-01-17T05:04:20.141Z,23.54
2023-01-17T05:06:50.872Z,23.51
2023-01-17T05:09:21.711Z,23.55
2023-01-17T05:11:52.532Z,23.59
2023-01-17T05:14:23.127Z,23.60
2023-01-17T05:16:57.645Z,23.53
2023-01-17T05:19:28.903Z,23.55
2023-01-17T05:22:05.008Z,23.62
2023-01-17T05:24:35.309Z,23.75
2023-01-17T05:27:06.017Z,23.75
2023-01-17T05:29:36.416Z,23.75
2023-01-17T05:32:07.976Z,23.59
2023-01-17T05:34:38.237Z,23.39
2023-01-17T05:37:08.946Z,23.02
2023-01-17T05:39:39.163Z,22.88
2023-01-17T05:42:10.224Z,22.79
2023-01-17T05:44:40.468Z,22.85
2023-01-17T05:47:11.775Z,22.79
2023-01-17T05:49:43.375Z,22.85
2023-01-17T05:52:15.157Z,22.79
2023-01-17T05:54:45.456Z,22.82
2023-01-17T05:57:17.108Z,22.93
2023-01-17T05:59:47.329Z,22.94
2023-01-17T06:02:18.089Z,23.10
2023-01-17T06:04:48.504Z,23.05
2023-01-17T06:07:19.295Z,23.03
2023-01-17T06:09:49.575Z,23.11
2023-01-17T06:12:22.028Z,22.81
2023-01-17T06:14:52.400Z,22.93
2023-01-17T06:17:23.116Z,23.04
2023-01-17T06:19:53.417Z,22.64
2023-01-17T06:22:24.452Z,22.58
2023-01-17T06:24:54.711Z,22.44
2023-01-17T06:27:25.718Z,22.39
2023-01-17T06:29:55.999Z,22.40
2023-01-17T06:32:26.887Z,22.46
2023-01-17T06:34:57.245Z,22.66
2023-01-17T06:37:28.013Z,22.86
2023-01-17T06:39:58.277Z,22.72
2023-01-17T06:42:29.149Z,22.70
2023-01-17T06:44:59.453Z,22.87
2023-01-17T06:47:30.504Z,22.72
2023-01-17T06:50:02.448Z,22.76
2023-01-17T06:52:34.060Z,22.92
2023-01-17T06:55:04.891Z,22.98
2023-01-17T06:57:35.845Z,22.92
2023-01-17T07:00:07.231Z,23.05
2023-01-17T07:02:38.128Z,23.09
2023-01-17T07:05:09.704Z,22.63
2023-01-17T07:07:40.337Z,22.49
2023-01-17T07:10:11.541Z,22.36
2023-01-17T07:12:42.348Z,22.29
2023-01-17T07:15:13.143Z,22.53
2023-01-17T07:17:43.894Z,22.39
2023-01-17T07:20:14.806Z,22.39
2023-01-17T07:22:48.523Z,22.11
2023-01-17T07:25:19.042Z,22.32
2023-01-17T07:27:50.214Z,22.16
2023-01-17T07:30:20.708Z,22.06
2023-01-17T07:32:55.785Z,22.40
2023-01-17T07:35:27.939Z,22.43
2023-01-17T07:37:58.658Z,22.43
2023-01-17T07:40:28.940Z,22.17
2023-01-17T07:43:15.254Z,22.08
2023-01-17T07:45:46.792Z,22.10
2023-01-17T07:48:18.145Z,22.41
2023-01-17T07:50:57.343Z,22.44
2023-01-17T07:53:29.993Z,22.33
2023-01-17T07:56:08.622Z,22.46
2023-01-17T07:58:39.571Z,22.40
2023-01-17T08:01:16.762Z,22.35
2023-01-17T08:03:47.848Z,22.22
2023-01-17T08:06:23.449Z,22.40
2023-01-17T08:09:00.147Z,22.38
2023-01-17T08:11:30.851Z,22.44
2023-01-17T08:14:01.638Z,22.42
2023-01-17T08:16:32.010Z,22.33
2023-01-17T08:19:02.848Z,22.08
2023-01-17T08:21:33.064Z,22.12
2023-01-17T08:24:03.839Z,22.02
2023-01-17T08:26:34.084Z,21.90
2023-01-17T08:29:04.992Z,21.89
2023-01-17T08:31:36.849Z,21.94
2023-01-17T08:34:07.689Z,21.81
2023-01-17T08:36:37.977Z,21.95
2023-01-17T08:39:08.730Z,22.15
2023-01-17T08:41:38.937Z,22.17
2023-01-17T08:44:09.687Z,22.23
2023-01-17T08:46:40.898Z,22.35
2023-01-17T08:49:13.536Z,22.27
2023-01-17T08:51:43.874Z,22.40
2023-01-17T08:54:16.395Z,22.57
2023-01-17T08:56:48.545Z,22.81
2023-01-17T08:59:19.516Z,23.04
2023-01-17T09:01:49.962Z,23.16
2023-01-17T09:04:21.069Z,23.31
2023-01-17T09:06:51.662Z,23.49
2023-01-17T09:09:22.436Z,23.68
2023-01-17T09:11:52.650Z,23.89
2023-01-17T09:14:23.523Z,24.10
2023-01-17T09:16:53.786Z,24.33
2023-01-17T09:19:24.667Z,24.54
2023-01-17T09:21:54.943Z,24.77
2023-01-17T09:24:25.690Z,25.08
2023-01-17T09:26:55.897Z,25.26
2023-01-17T09:29:26.765Z,25.43
2023-01-17T09:31:57.052Z,25.71
2023-01-17T09:34:28.239Z,25.89
2023-01-17T09:36:58.789Z,26.03
2023-01-17T09:39:29.575Z,26.15
2023-01-17T09:42:37.356Z,26.44
2023-01-17T09:45:17.951Z,26.68
2023-01-17T09:47:54.062Z,26.97
2023-01-17T09:50:40.173Z,27.11
2023-01-17T09:53:23.834Z,27.33
2023-01-17T09:56:25.036Z,27.65
2023-01-17T09:59:32.836Z,27.99
2023-01-17T10:02:26.467Z,28.06
2023-01-17T10:04:59.960Z,28.13
2023-01-17T10:08:07.560Z,28.51
2023-01-17T10:11:00.623Z,28.77
2023-01-17T10:13:49.693Z,29.11
2023-01-17T10:16:49.408Z,29.60
2023-01-17T10:19:41.262Z,30.00
2023-01-17T10:22:25.586Z,30.07
2023-01-17T10:24:59.234Z,30.06
2023-01-17T10:27:52.984Z,30.06
2023-01-17T10:30:31.666Z,30.10
2023-01-17T10:33:12.287Z,29.79
2023-01-17T10:35:52.604Z,30.09
2023-01-17T10:38:35.506Z,30.10
2023-01-17T10:41:38.657Z,30.20
2023-01-17T10:44:40.794Z,30.39
2023-01-17T10:47:22.797Z,30.42
2023-01-17T10:49:55.807Z,30.82
2023-01-17T10:52:31.144Z,31.11
2023-01-17T10:55:18.117Z,31.15
2023-01-17T10:57:50.544Z,31.51
2023-01-17T11:00:32.984Z,32.12
2023-01-17T11:03:04.259Z,32.53
2023-01-17T11:05:35.945Z,33.05
2023-01-17T11:08:11.902Z,33.08
2023-01-17T11:10:42.169Z,33.49
2023-01-17T11:13:32.498Z,33.88
2023-01-17T11:16:11.092Z,34.42
2023-01-17T11:18:42.078Z,34.79
2023-01-17T11:21:26.886Z,34.37
2023-01-17T11:23:59.002Z,34.48
2023-01-17T11:26:34.346Z,35.08
2023-01-17T11:29:30.794Z,34.93
2023-01-17T11:32:31.040Z,34.59
2023-01-17T11:35:17.312Z,34.43
2023-01-17T11:38:16.201Z,34.49
2023-01-17T11:40:48.694Z,34.61
2023-01-17T11:43:26.818Z,34.69
2023-01-17T11:46:19.009Z,34.36
2023-01-17T11:49:00.988Z,35.34
2023-01-17T11:51:34.612Z,34.89
2023-01-17T11:54:21.981Z,34.78
2023-01-17T11:56:59.579Z,34.59
2023-01-17T11:59:35.935Z,34.62
2023-01-17T12:02:18.631Z,35.05
2023-01-17T12:05:26.445Z,35.53
2023-01-17T12:08:31.996Z,35.24
2023-01-17T12:11:37.175Z,36.15
2023-01-17T12:14:23.180Z,36.00
2023-01-17T12:17:23.872Z,36.22
2023-01-17T12:20:07.134Z,35.47
2023-01-17T12:22:37.139Z,36.08
2023-01-17T12:25:08.109Z,36.46
2023-01-17T12:28:38.943Z,36.71
2023-01-17T12:31:25.833Z,37.64
2023-01-17T12:34:03.677Z,36.64
2023-01-17T12:37:09.699Z,36.80
2023-01-17T12:39:45.436Z,37.71
2023-01-17T12:42:25.657Z,38.40
2023-01-17T12:44:55.873Z,37.55
2023-01-17T12:47:26.890Z,37.39
2023-01-17T12:49:57.549Z,38.47
2023-01-17T12:52:40.419Z,39.06
2023-01-17T12:55:21.975Z,37.99
2023-01-17T12:58:04.225Z,38.57
2023-01-17T13:00:39.896Z,39.46
2023-01-17T13:03:25.913Z,39.86
2023-01-17T13:05:59.087Z,39.54
2023-01-17T13:08:32.891Z,39.13
2023-01-17T13:11:09.119Z,38.82
2023-01-17T13:13:42.509Z,38.43
2023-01-17T13:16:47.844Z,38.21
2023-01-17T13:19:29.711Z,39.07
2023-01-17T13:22:02.406Z,40.05
2023-01-17T13:24:37.836Z,40.49
2023-01-17T13:27:18.746Z,40.51
2023-01-17T13:30:06.193Z,41.14
2023-01-17T13:32:53.632Z,41.82
2023-01-17T13:35:26.680Z,42.46
2023-01-17T13:38:15.089Z,43.10
2023-01-17T13:40:56.458Z,43.50
2023-01-17T13:43:37.641Z,42.64
2023-01-17T13:46:08.852Z,41.42
2023-01-17T13:48:41.873Z,40.74
2023-01-17T13:51:13.059Z,41.82
2023-01-17T13:53:43.025Z,40.80
2023-01-17T13:56:30.555Z,40.96
2023-01-17T13:59:03.942Z,40.71
2023-01-17T14:01:39.468Z,41.60
2023-01-17T14:04:11.404Z,42.13
2023-01-17T14:06:50.142Z,42.19
2023-01-17T14:09:30.262Z,42.50
2023-01-17T14:12:08.718Z,41.68
2023-01-17T14:14:42.727Z,40.96
2023-01-17T14:17:27.811Z,41.57
2023-01-17T14:20:20.601Z,41.77
2023-01-17T14:22:57.834Z,41.33
2023-01-17T14:25:39.635Z,41.49
2023-01-17T14:28:33.536Z,41.40
2023-01-17T14:31:11.403Z,38.66
2023-01-17T14:33:43.127Z,38.39
2023-01-17T14:36:34.507Z,39.87
2023-01-17T14:39:04.638Z,39.82
2023-01-17T14:41:35.090Z,41.12
2023-01-17T14:44:05.805Z,42.18
2023-01-17T14:46:37.183Z,41.55
2023-01-17T14:49:21.341Z,41.91
2023-01-17T14:52:07.413Z,42.96
2023-01-17T14:54:37.972Z,41.53
2023-01-17T14:57:29.790Z,39.34
2023-01-17T15:00:19.632Z,40.00
2023-01-17T15:02:51.942Z,40.08
2023-01-17T15:05:24.826Z,40.09
2023-01-17T15:07:58.126Z,39.18
2023-01-17T15:10:34.616Z,39.15
2023-01-17T15:13:11.039Z,39.61
2023-01-17T15:15:43.126Z,40.53
2023-01-17T15:18:16.668Z,41.32
2023-01-17T15:20:52.099Z,40.18
2023-01-17T15:23:23.406Z,40.61
2023-01-17T15:25:55.252Z,41.12
2023-01-17T15:28:26.067Z,39.22
2023-01-17T15:31:12.109Z,38.99
2023-01-17T15:33:46.687Z,38.63
2023-01-17T15:36:28.983Z,38.78
2023-01-17T15:39:01.336Z,38.63
2023-01-17T15:41:38.392Z,38.52
2023-01-17T15:44:22.353Z,39.15
2023-01-17T15:46:52.598Z,39.78
2023-01-17T15:49:25.447Z,38.29
2023-01-17T15:52:15.753Z,36.64
2023-01-17T15:55:00.784Z,37.75
2023-01-17T15:57:36.533Z,38.03
2023-01-17T16:00:22.088Z,36.89
2023-01-17T16:02:58.227Z,37.20
2023-01-17T16:05:31.933Z,36.99
2023-01-17T16:08:05.446Z,36.61
2023-01-17T16:10:39.030Z,36.62
2023-01-17T16:13:11.279Z,35.91
2023-01-17T16:15:43.085Z,36.25
2023-01-17T16:18:26.829Z,36.25
2023-01-17T16:21:27.644Z,35.48
2023-01-17T16:23:58.604Z,35.17
2023-01-17T16:26:30.278Z,35.28
2023-01-17T16:29:00.614Z,34.83
2023-01-17T16:31:31.288Z,35.14
2023-01-17T16:34:01.382Z,35.78
2023-01-17T16:36:31.906Z,35.57
2023-01-17T16:39:01.932Z,35.62
2023-01-17T16:41:32.651Z,35.88
2023-01-17T16:44:06.542Z,35.55
2023-01-17T16:46:39.657Z,35.51
2023-01-17T16:49:09.865Z,35.41
2023-01-17T16:51:40.417Z,35.25
2023-01-17T16:54:10.522Z,35.03
2023-01-17T16:56:41.065Z,35.40
2023-01-17T16:59:11.143Z,34.63
2023-01-17T17:01:42.015Z,33.55
2023-01-17T17:04:14.286Z,33.66
2023-01-17T17:06:44.749Z,33.33
2023-01-17T17:09:14.770Z,33.43
2023-01-17T17:11:45.053Z,33.69
2023-01-17T17:14:15.988Z,33.79
2023-01-17T17:16:46.713Z,34.03
2023-01-17T17:19:17.200Z,34.41
2023-01-17T17:21:47.631Z,33.84
2023-01-17T17:24:18.939Z,33.03
2023-01-17T17:26:49.086Z,32.84
2023-01-17T17:29:19.661Z,32.48
2023-01-17T17:31:49.742Z,32.87
2023-01-17T17:34:20.375Z,33.82
2023-01-17T17:36:50.405Z,33.86
2023-01-17T17:39:21.121Z,34.19
2023-01-17T17:41:51.150Z,33.42
2023-01-17T17:44:21.633Z,33.48
2023-01-17T17:46:52.622Z,33.51
2023-01-17T17:49:23.857Z,32.93
2023-01-17T17:51:53.891Z,32.77
2023-01-17T17:54:25.789Z,32.54
2023-01-17T17:56:57.332Z,32.67
2023-01-17T17:59:27.352Z,32.46
2023-01-17T18:01:58.189Z,32.52
2023-01-17T18:04:28.677Z,33.01
2023-01-17T18:06:59.852Z,33.00
2023-01-17T18:09:30.210Z,32.81
2023-01-17T18:12:00.816Z,32.86
2023-01-17T18:14:31.324Z,33.16
2023-01-17T18:17:01.969Z,33.31
2023-01-17T18:19:38.165Z,33.53
2023-01-17T18:22:08.647Z,33.95
2023-01-17T18:24:39.059Z,34.08
2023-01-17T18:27:11.544Z,34.64
2023-01-17T18:29:41.663Z,34.48
2023-01-17T18:32:14.307Z,34.12
2023-01-17T18:34:44.520Z,33.15
2023-01-17T18:37:15.017Z,33.73
2023-01-17T18:39:45.202Z,34.27
2023-01-17T18:42:15.784Z,33.88
2023-01-17T18:44:45.969Z,34.55
2023-01-17T18:47:16.572Z,33.68
2023-01-17T18:49:46.680Z,33.95
2023-01-17T18:52:18.740Z,33.67
2023-01-17T18:54:49.026Z,32.35
2023-01-17T18:57:19.574Z,31.80
2023-01-17T18:59:49.654Z,32.05
2023-01-17T19:02:21.079Z,32.43
2023-01-17T19:04:52.163Z,32.09
2023-01-17T19:07:23.095Z,32.16
2023-01-17T19:09:53.115Z,31.95
2023-01-17T19:12:23.855Z,31.55
2023-01-17T19:14:53.945Z,31.65
2023-01-17T19:17:24.402Z,31.30
2023-01-17T19:19:56.977Z,31.49
2023-01-17T19:22:27.644Z,31.92
2023-01-17T19:24:57.715Z,31.78
2023-01-17T19:27:28.328Z,31.74
2023-01-17T19:29:58.367Z,31.53
2023-01-17T19:32:28.826Z,31.69
2023-01-17T19:34:58.770Z,32.95
2023-01-17T19:37:29.732Z,32.96
2023-01-17T19:40:00.101Z,32.77
2023-01-17T19:42:30.902Z,33.24
2023-01-17T19:45:01.228Z,33.13
2023-01-17T19:47:32.436Z,32.64
2023-01-17T19:50:02.743Z,31.89
2023-01-17T19:52:33.209Z,31.41
2023-01-17T19:55:03.959Z,31.03
2023-01-17T19:57:38.028Z,30.94
2023-01-17T20:00:11.188Z,30.68
2023-01-17T20:02:42.361Z,30.60
2023-01-17T20:05:12.487Z,30.48
2023-01-17T20:07:42.961Z,30.24
2023-01-17T20:10:13.448Z,30.12
2023-01-17T20:12:46.468Z,30.17
2023-01-17T20:15:17.037Z,29.96
2023-01-17T20:17:47.710Z,29.85
2023-01-17T20:20:18.968Z,29.70
2023-01-17T20:22:49.738Z,29.59
2023-01-17T20:25:19.867Z,29.67
2023-01-17T20:27:50.017Z,29.46
2023-01-17T20:30:20.923Z,29.53
2023-01-17T20:32:51.784Z,29.58
2023-01-17T20:35:22.369Z,29.63
2023-01-17T20:37:56.033Z,29.48
2023-01-17T20:40:26.755Z,29.57
2023-01-17T20:42:56.838Z,29.48
2023-01-17T20:45:26.831Z,29.09
2023-01-17T20:47:57.682Z,29.02
2023-01-17T20:50:28.550Z,29.02
2023-01-17T20:52:59.017Z,29.07
2023-01-17T20:55:29.067Z,29.14
2023-01-17T20:58:00.661Z,29.13
2023-01-17T21:00:30.708Z,29.08
2023-01-17T21:03:01.196Z,28.95
2023-01-17T21:05:31.304Z,28.87
2023-01-17T21:08:05.469Z,28.95
2023-01-17T21:10:37.494Z,28.84
2023-01-17T21:13:09.309Z,28.75
2023-01-17T21:15:45.611Z,28.70
2023-01-17T21:18:18.638Z,28.64
2023-01-17T21:20:50.447Z,28.79
2023-01-17T21:23:21.310Z,28.75
2023-01-17T21:25:55.813Z,28.57
2023-01-17T21:28:30.472Z,28.49
2023-01-17T21:31:27.381Z,28.43
2023-01-17T21:33:59.224Z,28.48
2023-01-17T21:36:33.664Z,28.19
2023-01-17T21:39:07.267Z,28.15
2023-01-17T21:41:40.659Z,28.08
2023-01-17T21:44:17.084Z,27.93
2023-01-17T21:46:48.070Z,27.63
2023-01-17T21:49:18.676Z,27.72
2023-01-17T21:51:54.776Z,27.60
2023-01-17T21:54:44.480Z,27.35
2023-01-17T21:57:36.112Z,27.14
2023-01-17T22:00:09.301Z,27.07
2023-01-17T22:02:42.457Z,27.04
2023-01-17T22:05:13.081Z,27.13
2023-01-17T22:08:13.233Z,27.00
2023-01-17T22:10:48.102Z,26.96
2023-01-17T22:13:19.839Z,26.92
2023-01-17T22:16:00.038Z,26.96
2023-01-17T22:18:31.000Z,26.94
2023-01-17T22:21:07.317Z,26.98
2023-01-17T22:23:41.980Z,26.88
2023-01-17T22:26:13.153Z,26.81
2023-01-17T22:28:43.752Z,26.98
2023-01-17T22:31:15.767Z,26.99
2023-01-17T22:33:48.655Z,26.90
2023-01-17T22:36:28.279Z,26.90
2023-01-17T22:39:01.993Z,26.85
2023-01-17T22:41:35.094Z,26.71
2023-01-17T22:44:09.120Z,26.55
2023-01-17T22:46:40.423Z,26.52
2023-01-17T22:49:14.471Z,26.51
2023-01-17T22:51:48.807Z,26.65
2023-01-17T22:54:20.760Z,26.63
2023-01-17T22:56:53.513Z,26.69
2023-01-17T22:59:23.831Z,26.48
2023-01-17T23:01:55.544Z,26.59
2023-01-17T23:04:25.681Z,26.55
2023-01-17T23:06:56.443Z,26.49
2023-01-17T23:09:26.868Z,26.46
2023-01-17T23:11:57.514Z,26.24
2023-01-17T23:14:56.396Z,26.32
2023-01-17T23:17:46.532Z,26.29
2023-01-17T23:20:17.019Z,26.39
2023-01-17T23:22:47.531Z,26.18
2023-01-17T23:25:18.793Z,26.23
2023-01-17T23:28:07.390Z,26.15
2023-01-17T23:30:38.458Z,26.11
2023-01-17T23:33:11.781Z,26.28
2023-01-17T23:35:44.218Z,26.52
2023-01-17T23:38:34.836Z,26.38
2023-01-17T23:41:26.475Z,26.33
2023-01-17T23:44:00.396Z,26.31
2023-01-17T23:46:38.246Z,26.24
2023-01-17T23:49:09.834Z,26.23
2023-01-17T23:51:41.408Z,26.34
2023-01-17T23:54:12.874Z,26.29
2023-01-17T23:56:43.708Z,26.14
2023-01-17T23:59:13.976Z,26.15
